Time;durP1;ratioP1;P1;durP2;ratioP2;P2;SDS_P1;SDS_P2;PMS_P1;PMS_P2;Temp;Humidity;BMP_temperature;BMP_pressure;BME280_temperature;BME280_humidity;BME280_pressure;Samples;Min_cycle;Max_cycle;Signal;HPM_P1;HPM_P2
2021/12/06 00:01:21;;;;;;;8.88;5.53;;;;;;;3.81;84.95;100696.41;4939178;28;20106;-82
2021/12/06 00:03:57;;;;;;;12.53;5.23;;;;;;;3.83;84.89;100688.69;4950383;28;20039;-83
2021/12/06 00:06:26;;;;;;;10.07;4.85;;;;;;;3.85;84.93;100680.97;4968706;28;20031;-83
2021/12/06 00:08:53;;;;;;;11.07;4.57;;;;;;;3.86;84.96;100677.13;4936081;28;20566;-82
2021/12/06 00:11:21;;;;;;;10.43;3.72;;;;;;;3.87;84.86;100667.78;4950800;28;20146;-82
2021/12/06 00:13:49;;;;;;;6.53;4.72;;;;;;;3.88;84.38;100663.13;4949708;28;20074;-83
2021/12/06 00:16:22;;;;;;;9.13;4.38;;;;;;;3.87;84.23;100651.34;4949903;28;20045;-83
2021/12/06 00:18:51;;;;;;;11.75;4.43;;;;;;;3.87;84.22;100645.88;4951420;28;20046;-82
2021/12/06 00:21:20;;;;;;;7.20;4.22;;;;;;;3.88;84.09;100641.22;4950547;28;20054;-83
2021/12/06 00:23:47;;;;;;;10.00;3.75;;;;;;;3.90;83.72;100645.28;4950087;28;20566;-85
2021/12/06 00:26:15;;;;;;;7.80;3.03;;;;;;;3.93;83.62;100628.25;4951019;28;20063;-83
2021/12/06 00:28:45;;;;;;;10.57;2.67;;;;;;;3.94;83.58;100621.66;4949367;28;20135;-83
2021/12/06 00:31:13;;;;;;;6.50;2.10;;;;;;;3.97;83.63;100614.75;4935292;28;20764;-83
2021/12/06 00:33:42;;;;;;;5.40;1.85;;;;;;;3.97;83.17;100612.81;4950856;28;20479;-82
2021/12/06 00:36:16;;;;;;;5.22;2.03;;;;;;;4.00;83.34;100605.91;4950084;28;20083;-83
2021/12/06 00:38:45;;;;;;;4.85;2.08;;;;;;;3.99;83.25;100585.94;4932928;28;20138;-83
2021/12/06 00:41:12;;;;;;;3.78;1.80;;;;;;;4.01;83.25;100589.19;4951072;28;20557;-83
2021/12/06 00:43:39;;;;;;;7.38;1.50;;;;;;;4.03;83.04;100581.47;4934873;28;20043;-83
2021/12/06 00:46:05;;;;;;;3.78;2.10;;;;;;;4.06;82.76;100588.25;4949674;28;20071;-83
2021/12/06 00:48:32;;;;;;;4.05;1.45;;;;;;;4.08;nan;100581.38;4946725;28;20102;-82
2021/12/06 00:51:00;;;;;;;3.13;1.35;;;;;;;4.10;82.24;100572.84;4950793;28;20031;-83
2021/12/06 00:53:27;;;;;;;3.42;1.73;;;;;;;4.11;82.30;100578.00;4951879;28;20121;-83
2021/12/06 00:55:55;;;;;;;5.57;1.70;;;;;;;4.12;82.29;100576.91;4937841;28;20047;-83
2021/12/06 00:58:23;;;;;;;14.27;5.03;;;;;;;4.15;81.97;100570.81;4949158;28;20126;-83
2021/12/06 01:00:53;;;;;;;9.60;2.78;;;;;;;4.17;82.27;100554.88;4950755;28;20436;-83
2021/12/06 01:03:29;;;;;;;6.32;2.15;;;;;;;4.17;82.00;100563.09;4949523;28;20043;-82
2021/12/06 01:05:56;;;;;;;5.25;2.08;;;;;;;4.19;81.85;100555.38;4950066;28;20047;-82
2021/12/06 01:08:23;;;;;;;9.27;1.90;;;;;;;4.19;81.68;100552.63;4944240;28;20087;-82
2021/12/06 01:10:51;;;;;;;4.55;1.27;;;;;;;4.21;81.54;100557.78;4949921;28;20047;-83
2021/12/06 01:13:19;;;;;;;3.83;2.50;;;;;;;4.21;81.78;100547.66;4955136;28;20040;-83
2021/12/06 01:15:47;;;;;;;8.60;1.60;;;;;;;4.21;81.58;100553.13;4949227;28;20446;-83
2021/12/06 01:18:16;;;;;;;3.30;1.38;;;;;;;4.23;81.49;100545.44;4932834;28;20046;-82
2021/12/06 01:20:53;;;;;;;2.58;1.20;;;;;;;4.24;81.49;100538.81;4933166;28;20043;-83
2021/12/06 01:23:24;;;;;;;4.47;1.10;;;;;;;4.24;81.41;100529.78;4949130;28;20039;-82
2021/12/06 01:29:37;;;;;;;2.33;0.90;;;;;;;4.26;81.52;100511.91;4950727;28;20035;-84
2021/12/06 01:31:48;;;;;;;6.80;2.17;;;;;;;4.27;81.19;100513.56;4949646;28;20603;-83
2021/12/06 01:39:51;;;;;;;4.88;1.10;;;;;;;4.30;81.26;100496.50;4949331;28;20070;-83
2021/12/06 01:42:18;;;;;;;6.20;1.05;;;;;;;4.30;81.05;100488.28;4947914;28;20708;-83
2021/12/06 01:44:50;;;;;;;4.82;0.95;;;;;;;4.30;81.01;100482.78;4947786;28;20054;-83
2021/12/06 01:47:23;;;;;;;3.97;1.25;;;;;;;4.29;81.10;100483.91;4947540;28;20138;-83
2021/12/06 01:49:54;;;;;;;4.28;1.05;;;;;;;4.29;80.82;100475.69;4948240;28;20035;-83
2021/12/06 01:52:24;;;;;;;7.18;2.85;;;;;;;4.30;81.16;100476.50;4948043;28;20126;-83
2021/12/06 01:54:52;;;;;;;5.70;1.30;;;;;;;4.32;81.21;100466.84;4948403;28;20049;-83
2021/12/06 01:57:19;;;;;;;3.72;1.63;;;;;;;4.32;81.21;100457.81;4947879;28;20031;-83
2021/12/06 01:59:45;;;;;;;5.38;0.85;;;;;;;4.34;81.42;100446.56;4932316;28;20058;-83
2021/12/06 02:02:13;;;;;;;2.10;0.63;;;;;;;4.35;81.20;100448.16;4948674;28;20066;-82
2021/12/06 02:04:42;;;;;;;3.47;0.70;;;;;;;4.35;81.61;100429.78;4946803;28;20035;-83
2021/12/06 02:07:16;;;;;;;3.10;0.90;;;;;;;4.37;81.82;100418.53;4962119;28;20433;-83
2021/12/06 02:09:45;;;;;;;2.30;1.40;;;;;;;4.38;82.23;100407.25;4946312;28;20089;-84
2021/12/06 02:12:13;;;;;;;3.17;0.70;;;;;;;4.40;82.48;100418.69;4947485;28;20045;-83
2021/12/06 02:17:17;;;;;;;3.72;1.00;;;;;;;4.46;82.85;100411.16;4947030;28;20047;-83
2021/12/06 02:19:49;;;;;;;5.32;0.70;;;;;;;4.47;82.95;100402.63;4948737;28;20039;-83
2021/12/06 02:22:20;;;;;;;3.97;0.90;;;;;;;4.48;83.24;100392.47;4948187;28;20043;-83
2021/12/06 02:24:48;;;;;;;3.60;1.40;;;;;;;4.47;83.77;100390.84;4941190;28;20114;-83
2021/12/06 02:27:16;;;;;;;2.63;0.70;;;;;;;4.47;83.64;100396.34;4950152;28;20142;-82
2021/12/06 02:29:45;;;;;;;4.47;0.85;;;;;;;4.47;84.14;100374.41;4949625;28;20395;-81
2021/12/06 02:32:14;;;;;;;3.78;0.90;;;;;;;4.47;84.45;100382.63;4947006;28;20383;-82
2021/12/06 02:34:44;;;;;;;2.22;0.80;;;;;;;4.46;84.50;100370.84;4948209;28;20027;-82
2021/12/06 02:37:14;;;;;;;6.13;1.20;;;;;;;4.44;85.13;100364.06;4932883;28;20035;-82
2021/12/06 02:39:45;;;;;;;4.45;1.10;;;;;;;4.45;85.25;100349.25;4946952;28;20090;-82
2021/12/06 02:42:15;;;;;;;7.00;1.20;;;;;;;4.45;85.26;100341.03;4946677;28;20063;-82
2021/12/06 02:44:46;;;;;;;2.13;1.25;;;;;;;4.44;85.60;100331.19;4946875;28;20050;-82
2021/12/06 02:47:15;;;;;;;5.07;0.98;;;;;;;4.45;85.97;100316.38;4947222;28;20141;-82
2021/12/06 02:49:42;;;;;;;9.18;1.65;;;;;;;4.45;86.04;100313.63;4948421;28;20042;-82
2021/12/06 02:52:11;;;;;;;7.68;1.88;;;;;;;4.46;86.40;100310.56;4962074;28;20483;-82
2021/12/06 02:54:40;;;;;;;6.40;1.92;;;;;;;4.45;86.58;100294.44;4955122;28;20031;-83
2021/12/06 02:59:36;;;;;;;4.60;0.88;;;;;;;4.47;87.52;100275.75;4949377;28;20051;-81
2021/12/06 03:02:10;;;;;;;7.03;1.17;;;;;;;4.48;87.38;100282.81;4947224;28;20059;-82
2021/12/06 03:04:39;;;;;;;2.35;1.25;;;;;;;4.47;87.63;100271.06;4948582;28;20493;-83
2021/12/06 03:07:07;;;;;;;8.35;1.15;;;;;;;4.49;87.64;100268.81;4947012;28;20051;-82
2021/12/06 03:09:37;;;;;;;4.65;1.30;;;;;;;4.50;88.50;100262.19;4946211;28;20517;-82
2021/12/06 03:12:12;;;;;;;5.78;1.23;;;;;;;4.51;88.26;100250.09;4948953;28;20743;-82
2021/12/06 03:14:44;;;;;;;4.75;1.40;;;;;;;4.54;88.09;100243.19;4947927;28;20476;-83
2021/12/06 03:17:13;;;;;;;4.60;1.20;;;;;;;4.54;88.62;100241.25;4939279;28;20047;-83
2021/12/06 03:19:40;;;;;;;5.07;1.25;;;;;;;4.55;88.40;100231.09;4948195;28;20487;-83
2021/12/06 03:22:10;;;;;;;4.70;1.52;;;;;;;4.54;88.99;100219.31;4941267;28;20039;-83
2021/12/06 03:24:38;;;;;;;5.75;1.23;;;;;;;4.57;89.21;100220.63;4946381;28;20087;-83
2021/12/06 03:27:05;;;;;;;5.60;1.15;;;;;;;4.59;88.99;100207.41;4948742;28;20138;-83
2021/12/06 03:29:33;;;;;;;5.13;1.20;;;;;;;4.61;88.87;100213.38;4950881;28;20027;-83
2021/12/06 03:32:00;;;;;;;3.95;1.40;;;;;;;4.63;88.71;100214.66;4935250;28;20050;-83
2021/12/06 03:34:26;;;;;;;8.82;1.35;;;;;;;4.64;89.71;100196.28;4952154;28;20035;-83
2021/12/06 03:36:56;;;;;;;6.07;1.20;;;;;;;4.65;89.30;100185.00;4951496;28;20062;-84
2021/12/06 03:39:28;;;;;;;5.60;1.40;;;;;;;4.65;89.40;100193.25;4952410;28;20061;-84
2021/12/06 03:41:59;;;;;;;7.28;1.30;;;;;;;4.66;89.46;100170.16;4950697;28;20039;-83
2021/12/06 03:44:27;;;;;;;8.43;3.10;;;;;;;4.69;89.42;100175.00;4949361;28;20047;-83
2021/12/06 03:46:59;;;;;;;4.97;1.75;;;;;;;4.68;89.51;100183.56;4933745;28;20047;-83
2021/12/06 03:49:26;;;;;;;3.90;1.60;;;;;;;4.70;89.93;100159.38;4935487;28;20043;-83
2021/12/06 03:51:53;;;;;;;5.85;1.15;;;;;;;4.71;89.99;100161.78;4951504;28;20458;-83
2021/12/06 03:54:24;;;;;;;1.67;0.93;;;;;;;4.77;90.25;100176.16;4951937;28;20035;-84
2021/12/06 03:56:51;;;;;;;1.75;0.57;;;;;;;4.84;90.25;100165.53;4933149;28;20074;-83
2021/12/06 03:59:20;;;;;;;2.88;0.70;;;;;;;4.88;91.08;100177.47;4963892;28;20042;-83
2021/12/06 04:01:48;;;;;;;4.00;1.95;;;;;;;4.97;91.32;100178.28;4934417;28;20047;-82
2021/12/06 04:04:16;;;;;;;0.68;0.10;;;;;;;5.06;91.91;100170.84;4950385;28;20038;-83
2021/12/06 04:06:43;;;;;;;0.22;0.20;;;;;;;5.17;91.49;100163.91;4949904;28;20054;-83
2021/12/06 04:09:11;;;;;;;1.13;0.30;;;;;;;5.24;91.38;100146.97;4951167;28;20431;-83
2021/12/06 04:11:38;;;;;;;0.40;0.03;;;;;;;5.28;91.31;100142.44;4950462;28;20047;-83
2021/12/06 04:14:07;;;;;;;0.05;0.05;;;;;;;5.33;91.38;100140.34;4962353;28;20078;-83
2021/12/06 04:16:35;;;;;;;0.20;0.10;;;;;;;5.35;91.09;100113.38;4950644;28;20146;-82
2021/12/06 04:19:04;;;;;;;0.10;0.10;;;;;;;5.35;91.01;100124.34;4949830;28;20047;-83
2021/12/06 04:21:32;;;;;;;0.20;0.20;;;;;;;5.36;91.36;100117.72;4951081;28;20130;-83
2021/12/06 04:23:59;;;;;;;1.58;0.10;;;;;;;5.39;91.65;100111.59;4950973;28;20071;-83
2021/12/06 04:26:26;;;;;;;0.05;0.05;;;;;;;5.43;91.50;100141.91;4948964;28;20057;-83
2021/12/06 04:29:01;;;;;;;0.30;0.10;;;;;;;5.45;91.62;100148.69;4949681;28;20085;-83
2021/12/06 04:31:33;;;;;;;0.10;0.10;;;;;;;5.49;91.84;100138.69;4965017;28;20130;-83
2021/12/06 04:34:00;;;;;;;2.63;0.10;;;;;;;5.56;92.08;100129.16;4948956;28;20059;-83
2021/12/06 04:36:37;;;;;;;0.10;0.00;;;;;;;5.59;91.63;100125.78;4949453;28;20070;-83
2021/12/06 04:39:10;;;;;;;1.17;0.10;;;;;;;5.60;91.69;100116.38;4948967;28;20043;-83
2021/12/06 04:41:37;;;;;;;0.00;0.00;;;;;;;5.57;91.48;100106.03;4947359;28;20117;-82
2021/12/06 04:44:04;;;;;;;0.43;0.10;;;;;;;5.52;91.49;100099.59;4933647;28;20078;-83
2021/12/06 04:46:31;;;;;;;0.60;0.10;;;;;;;5.52;91.84;100102.34;4950562;28;20043;-83
2021/12/06 04:48:58;;;;;;;0.08;0.00;;;;;;;5.53;91.97;100098.47;4933408;28;20039;-83
2021/12/06 04:51:25;;;;;;;0.63;0.08;;;;;;;5.55;91.90;100087.16;4949796;28;20832;-83
2021/12/06 04:53:52;;;;;;;2.47;0.20;;;;;;;5.52;91.72;100083.13;4948616;28;20499;-83
2021/12/06 04:56:33;;;;;;;0.98;0.17;;;;;;;5.49;91.86;100061.81;4948705;28;20045;-83
2021/12/06 04:59:12;;;;;;;0.45;0.15;;;;;;;5.46;92.07;100056.19;4947819;28;20073;-83
2021/12/06 05:01:40;;;;;;;0.43;0.30;;;;;;;5.46;91.60;100051.50;4950765;28;20129;-82
2021/12/06 05:04:23;;;;;;;1.33;0.30;;;;;;;5.44;91.96;100041.97;4957658;28;20035;-83
2021/12/06 05:06:53;;;;;;;1.42;0.45;;;;;;;5.40;91.83;100047.31;4945555;28;20105;-83
2021/12/06 05:09:24;;;;;;;0.30;0.10;;;;;;;5.40;92.38;100047.31;4944766;28;20043;-83
2021/12/06 05:11:51;;;;;;;2.13;0.10;;;;;;;5.41;92.21;100037.94;4948063;28;20031;-85
2021/12/06 05:14:19;;;;;;;0.70;0.30;;;;;;;5.44;92.62;100031.00;4950453;28;20037;-83
2021/12/06 05:16:46;;;;;;;1.02;0.40;;;;;;;5.44;92.27;100033.75;4948833;28;20049;-83
2021/12/06 05:19:13;;;;;;;0.65;0.20;;;;;;;5.46;92.38;100024.03;4949419;28;20039;-83
2021/12/06 05:21:40;;;;;;;4.00;0.50;;;;;;;5.50;92.83;100030.50;4933753;28;20395;-83
2021/12/06 05:24:07;;;;;;;4.97;0.30;;;;;;;5.56;93.25;100013.84;4950059;28;20118;-83
2021/12/06 05:26:38;;;;;;;0.63;0.22;;;;;;;5.60;93.28;100014.78;4950949;28;20387;-83
2021/12/06 05:29:07;;;;;;;1.55;0.47;;;;;;;5.61;92.78;100014.47;4964744;28;20047;-83
2021/12/06 05:31:39;;;;;;;3.20;0.47;;;;;;;5.60;92.70;100017.53;4953354;28;20039;-83
2021/12/06 05:34:14;;;;;;;1.58;0.70;;;;;;;5.63;93.54;100008.63;4948229;28;20044;-83
2021/12/06 05:36:42;;;;;;;1.35;0.35;;;;;;;5.71;93.63;100016.03;4948815;28;20058;-83
2021/12/06 05:39:09;;;;;;;1.83;0.50;;;;;;;5.75;93.58;100015.03;4955662;28;20476;-82
2021/12/06 05:41:37;;;;;;;1.85;0.50;;;;;;;5.78;93.49;100024.53;4948974;28;20039;-84
2021/12/06 05:44:05;;;;;;;4.70;0.65;;;;;;;5.81;93.74;100021.97;4947367;28;20043;-83
2021/12/06 05:46:31;;;;;;;2.28;0.50;;;;;;;5.82;93.61;100009.03;4950159;28;20043;-84
2021/12/06 05:48:58;;;;;;;4.13;0.55;;;;;;;5.85;93.72;100008.41;4955560;28;20032;-83
2021/12/06 05:51:25;;;;;;;5.80;0.60;;;;;;;5.86;93.91;100010.81;4947856;28;20074;-83
2021/12/06 05:53:52;;;;;;;7.47;1.45;;;;;;;5.88;93.64;100002.22;4958050;28;20058;-83
2021/12/06 05:56:20;;;;;;;3.30;0.55;;;;;;;5.89;93.74;100003.84;4950070;28;20444;-84
2021/12/06 05:58:47;;;;;;;4.35;1.05;;;;;;;5.88;93.99;99991.22;4931865;28;20069;-84
2021/12/06 06:01:14;;;;;;;3.80;0.70;;;;;;;5.89;94.26;99998.34;4948580;28;20043;-84
2021/12/06 06:03:45;;;;;;;3.42;0.65;;;;;;;5.91;94.43;99985.88;4948447;28;20040;-84
2021/12/06 06:06:12;;;;;;;6.00;0.65;;;;;;;5.96;95.00;99977.44;4948091;28;20039;-84
2021/12/06 06:08:39;;;;;;;4.72;0.90;;;;;;;6.01;94.98;99984.72;4947399;28;20035;-84
2021/12/06 06:11:06;;;;;;;2.50;0.60;;;;;;;6.04;95.27;99987.59;4948146;28;20043;-84
2021/12/06 06:13:32;;;;;;;2.85;0.82;;;;;;;6.09;95.84;99973.66;4947534;28;20035;-84
2021/12/06 06:16:02;;;;;;;1.58;0.80;;;;;;;6.14;95.58;99973.44;4947999;28;20074;-84
2021/12/06 06:18:29;;;;;;;5.68;1.13;;;;;;;6.18;95.75;99967.28;4948642;28;20074;-84
2021/12/06 06:20:56;;;;;;;4.28;0.65;;;;;;;6.21;95.69;99978.41;4951680;28;20118;-84
2021/12/06 06:23:26;;;;;;;7.63;1.58;;;;;;;6.23;95.17;99962.41;4947458;28;20127;-84
2021/12/06 06:25:53;;;;;;;4.82;0.90;;;;;;;6.25;95.05;99962.84;4952237;28;20065;-84
2021/12/06 06:28:20;;;;;;;3.10;0.63;;;;;;;6.28;94.44;99972.38;4952133;28;20035;-83
2021/12/06 06:30:47;;;;;;;2.83;0.60;;;;;;;6.27;94.80;99971.59;4949335;28;20043;-83
2021/12/06 06:33:14;;;;;;;2.22;0.65;;;;;;;6.26;94.61;99975.47;4948984;28;20693;-84
2021/12/06 06:35:40;;;;;;;2.95;1.25;;;;;;;6.26;94.33;99978.22;4959044;28;20069;-84
2021/12/06 06:38:07;;;;;;;6.70;0.85;;;;;;;6.25;94.68;99979.34;4949430;28;20035;-83
2021/12/06 06:40:34;;;;;;;2.70;0.55;;;;;;;6.28;94.39;99975.94;4931265;28;20047;-83
2021/12/06 06:43:03;;;;;;;4.80;2.35;;;;;;;6.27;94.05;99977.09;4949114;28;20106;-83
2021/12/06 06:45:29;;;;;;;6.97;1.45;;;;;;;6.32;94.09;99963.16;4947592;28;20147;-83
2021/12/06 06:47:56;;;;;;;4.80;1.08;;;;;;;6.29;93.67;99958.31;4947912;28;20047;-83
2021/12/06 06:50:23;;;;;;;4.47;0.90;;;;;;;6.28;93.70;99962.19;4947917;28;20047;-83
2021/12/06 06:52:51;;;;;;;6.00;1.33;;;;;;;6.26;93.64;99953.47;4947273;28;20035;-84
2021/12/06 06:55:19;;;;;;;8.65;1.80;;;;;;;6.25;93.69;99946.38;4947403;28;20142;-83
2021/12/06 06:57:47;;;;;;;12.90;2.03;;;;;;;6.25;93.47;99962.06;4946047;28;20051;-83
2021/12/06 07:00:25;;;;;;;4.97;0.73;;;;;;;6.22;93.47;99962.75;4954055;28;20061;-82
2021/12/06 07:02:52;;;;;;;5.03;0.90;;;;;;;6.20;93.59;99968.56;4949141;28;20468;-84
2021/12/06 07:05:20;;;;;;;2.25;1.00;;;;;;;6.16;93.36;99975.88;4952438;28;20155;-83
2021/12/06 07:07:47;;;;;;;2.92;0.70;;;;;;;6.14;93.48;99967.16;4950983;28;20106;-83
2021/12/06 07:10:14;;;;;;;4.03;1.02;;;;;;;6.11;93.03;99979.63;4950859;28;20051;-83
2021/12/06 07:12:45;;;;;;;5.22;0.70;;;;;;;6.07;93.19;99983.34;4952011;28;20126;-84
2021/12/06 07:15:15;;;;;;;7.70;1.25;;;;;;;6.02;93.38;99973.38;4950545;28;20066;-84
2021/12/06 07:17:43;;;;;;;14.98;2.90;;;;;;;5.98;93.30;99957.91;4952054;28;20042;-84
2021/12/06 07:20:13;;;;;;;3.38;1.27;;;;;;;5.94;93.18;99973.44;4951001;28;20051;-83
2021/12/06 07:22:41;;;;;;;4.82;1.20;;;;;;;5.89;93.04;99959.91;4949793;28;20463;-83
2021/12/06 07:25:08;;;;;;;4.93;1.67;;;;;;;5.86;93.15;99966.03;4952141;28;20114;-83
2021/12/06 07:27:35;;;;;;;6.50;1.20;;;;;;;5.83;93.27;99974.91;4951087;28;20041;-83
2021/12/06 07:30:05;;;;;;;6.32;1.50;;;;;;;5.78;93.66;99975.91;4931012;28;20047;-84
2021/12/06 07:32:32;;;;;;;4.35;1.13;;;;;;;5.77;93.58;99968.03;4950039;28;20522;-83
2021/12/06 07:34:59;;;;;;;16.20;2.55;;;;;;;5.77;93.99;99985.28;4950711;28;20051;-83
2021/12/06 07:37:26;;;;;;;11.32;1.42;;;;;;;5.81;94.34;99979.94;4950265;28;20043;-83
2021/12/06 07:39:52;;;;;;;8.25;1.52;;;;;;;5.86;94.13;99971.53;4934177;28;20189;-84
2021/12/06 07:42:19;;;;;;;9.18;1.70;;;;;;;5.88;94.34;99963.75;4950843;28;20479;-84
2021/12/06 07:44:48;;;;;;;7.00;1.08;;;;;;;5.91;93.85;99958.41;4949304;28;20494;-84
2021/12/06 07:47:15;;;;;;;3.80;1.67;;;;;;;5.92;93.92;99961.97;4952577;28;20054;-84
2021/12/06 07:49:45;;;;;;;5.90;1.50;;;;;;;5.92;93.00;99965.53;4934776;28;20134;-85
2021/12/06 07:52:24;;;;;;;9.77;2.97;;;;;;;5.92;92.99;99951.00;4952239;28;20023;-84
2021/12/06 07:54:53;;;;;;;14.65;2.22;;;;;;;5.92;93.18;99959.22;4950491;28;20126;-86
2021/12/06 07:57:20;;;;;;;5.15;1.67;;;;;;;5.90;92.96;99954.09;4951491;28;20039;-83
2021/12/06 07:59:46;;;;;;;7.70;1.90;;;;;;;5.88;93.00;99959.09;4951587;28;20078;-85
2021/12/06 08:02:15;;;;;;;6.65;2.03;;;;;;;5.86;92.79;99955.06;4950628;28;20550;-83
2021/12/06 08:04:42;;;;;;;8.55;2.17;;;;;;;5.82;93.14;99954.91;4951345;28;20130;-83
2021/12/06 08:07:09;;;;;;;7.95;1.98;;;;;;;5.79;93.16;99952.00;4951842;28;20035;-84
2021/12/06 08:09:36;;;;;;;10.75;2.58;;;;;;;5.76;93.05;99937.00;4933449;28;20066;-85
2021/12/06 08:12:03;;;;;;;8.23;2.00;;;;;;;5.74;93.20;99938.47;4955816;28;20039;-84
2021/12/06 08:14:29;;;;;;;8.63;2.38;;;;;;;5.71;93.09;99933.66;4966229;28;20122;-84
2021/12/06 08:16:57;;;;;;;10.43;2.28;;;;;;;5.68;93.32;99932.38;4921516;28;20039;-85
2021/12/06 08:19:24;;;;;;;12.27;3.10;;;;;;;5.67;93.03;99936.25;4947944;28;20039;-84
2021/12/06 08:21:51;;;;;;;8.68;2.38;;;;;;;5.65;93.22;99937.72;4949776;28;20067;-85
2021/12/06 08:24:17;;;;;;;19.50;3.42;;;;;;;5.62;93.39;99927.38;4948025;28;20042;-84
2021/12/06 08:26:47;;;;;;;6.55;1.88;;;;;;;5.59;93.28;99936.31;4955025;28;20052;-85
2021/12/06 08:29:16;;;;;;;11.57;2.35;;;;;;;5.57;92.93;99935.81;4947642;28;20032;-84
2021/12/06 08:31:44;;;;;;;11.65;2.83;;;;;;;5.52;93.08;99940.38;4948296;28;20114;-82
2021/12/06 08:34:12;;;;;;;9.82;3.15;;;;;;;5.50;93.13;99939.09;4948285;28;20046;-83
2021/12/06 08:36:39;;;;;;;7.88;2.25;;;;;;;5.47;93.43;99954.28;4942477;28;20035;-82
2021/12/06 08:39:06;;;;;;;8.05;1.83;;;;;;;5.46;93.18;99952.66;4950306;28;20035;-85
2021/12/06 08:41:33;;;;;;;17.83;2.80;;;;;;;5.42;93.26;99939.94;4949729;28;20134;-85
2021/12/06 08:44:03;;;;;;;13.70;2.20;;;;;;;5.42;93.74;99959.16;4935819;28;21040;-86
2021/12/06 08:46:37;;;;;;;15.23;3.72;;;;;;;5.41;93.90;99949.31;4951035;28;20043;-85
2021/12/06 08:49:06;;;;;;;11.45;2.88;;;;;;;5.40;93.59;99953.19;4952037;28;20070;-85
2021/12/06 08:51:37;;;;;;;13.60;3.17;;;;;;;5.41;93.72;99955.59;4947083;28;20047;-85
2021/12/06 08:54:06;;;;;;;8.57;2.10;;;;;;;5.42;93.95;99959.16;4950734;28;20117;-86
2021/12/06 08:56:34;;;;;;;13.98;4.00;;;;;;;5.46;94.23;99962.84;4951711;28;20073;-84
2021/12/06 08:59:02;;;;;;;15.88;2.92;;;;;;;5.51;94.21;99970.88;4948574;28;20039;-84
2021/12/06 09:01:30;;;;;;;18.42;3.92;;;;;;;5.57;94.20;99963.28;4951054;28;20122;-85
2021/12/06 09:04:17;;;;;;;8.35;2.28;;;;;;;5.62;94.44;99963.09;4954650;28;20038;-85
2021/12/06 09:06:50;;;;;;;13.35;1.75;;;;;;;5.62;94.04;99963.91;4935322;28;20083;-85
2021/12/06 09:09:17;;;;;;;14.13;1.58;;;;;;;5.59;93.92;99964.56;4950846;28;20039;-84
2021/12/06 09:11:46;;;;;;;12.07;2.25;;;;;;;5.58;93.47;99960.22;4939477;28;20047;-85
2021/12/06 09:14:15;;;;;;;15.38;2.60;;;;;;;5.54;93.24;99960.06;4954002;28;20086;-85
2021/12/06 09:16:43;;;;;;;24.17;2.83;;;;;;;5.52;93.21;99962.34;4953769;28;20035;-88
2021/12/06 09:19:15;;;;;;;5.30;2.08;;;;;;;5.51;93.31;99957.16;4956087;28;20035;-87
2021/12/06 09:21:43;;;;;;;14.85;3.10;;;;;;;5.49;93.07;99960.25;4957807;28;20047;-85
2021/12/06 09:24:15;;;;;;;16.27;2.17;;;;;;;5.48;92.93;99949.63;4952995;28;20063;-85
2021/12/06 09:26:44;;;;;;;8.40;2.08;;;;;;;5.47;92.74;99948.00;4948824;28;20043;-86
2021/12/06 09:29:12;;;;;;;15.18;2.72;;;;;;;5.45;92.71;99940.06;4952199;28;20387;-87
2021/12/06 09:31:40;;;;;;;12.52;3.20;;;;;;;5.43;92.36;99953.31;4966675;28;20061;-88
2021/12/06 09:34:07;;;;;;;14.45;2.17;;;;;;;5.41;92.39;99949.31;4948125;28;20095;-88
2021/12/06 09:36:35;;;;;;;10.32;2.20;;;;;;;5.40;92.50;99959.47;4932785;28;20151;-92
2021/12/06 09:39:06;;;;;;;13.63;2.70;;;;;;;5.40;92.45;99953.97;4948174;28;20043;-85
2021/12/06 09:41:33;;;;;;;8.50;2.05;;;;;;;5.40;92.35;99956.72;4944766;28;20471;-85
2021/12/06 09:44:02;;;;;;;9.90;2.50;;;;;;;5.37;92.00;99949.19;4946729;28;20071;-85
2021/12/06 09:46:34;;;;;;;12.10;2.33;;;;;;;5.37;92.00;99949.19;4947263;28;20039;-86
2021/12/06 09:49:07;;;;;;;12.18;2.85;;;;;;;5.37;91.73;99953.84;4934190;29;20439;-86
2021/12/06 09:51:37;;;;;;;10.85;2.03;;;;;;;5.37;91.61;99960.16;4939121;28;20038;-86
2021/12/06 09:54:06;;;;;;;16.77;2.95;;;;;;;5.37;91.50;99964.84;4933659;28;20058;-86
2021/12/06 09:56:39;;;;;;;15.15;2.30;;;;;;;5.34;91.25;99966.31;4953625;28;20394;-87
2021/12/06 09:59:10;;;;;;;8.20;2.08;;;;;;;5.35;91.53;99956.91;4964331;28;20475;-87
2021/12/06 10:01:43;;;;;;;8.07;2.37;;;;;;;5.35;90.98;99961.59;4956733;28;20051;-87
2021/12/06 10:04:14;;;;;;;6.10;1.90;;;;;;;5.34;90.76;99963.56;4941123;28;20478;-85
2021/12/06 10:06:42;;;;;;;10.88;1.98;;;;;;;5.35;90.70;99962.41;4961167;28;20049;-87
2021/12/06 10:09:12;;;;;;;9.45;2.25;;;;;;;5.35;90.82;99961.59;4950162;28;20138;-87
2021/12/06 10:11:41;;;;;;;12.45;3.38;;;;;;;5.35;90.43;99961.59;4949760;28;20030;-86
2021/12/06 10:14:09;;;;;;;10.07;1.75;;;;;;;5.34;90.61;99958.06;4947765;28;20138;-86
2021/12/06 10:16:36;;;;;;;11.32;2.50;;;;;;;5.32;90.42;99951.31;4947521;28;20039;-88
2021/12/06 10:19:05;;;;;;;10.02;2.17;;;;;;;5.33;90.02;99942.72;4947582;28;20056;-86
2021/12/06 10:21:35;;;;;;;13.68;2.30;;;;;;;5.36;89.88;99953.03;4950192;28;20118;-87
2021/12/06 10:24:07;;;;;;;7.75;1.90;;;;;;;5.39;89.87;99948.84;4949760;28;20138;-87
2021/12/06 10:26:34;;;;;;;11.35;1.40;;;;;;;5.41;89.54;99938.31;4930525;28;20047;-87
2021/12/06 10:29:19;;;;;;;6.97;1.63;;;;;;;5.44;89.44;99924.75;4947796;28;20090;-87
2021/12/06 10:31:49;;;;;;;10.35;3.28;;;;;;;5.47;89.03;99935.06;4941936;28;20082;-86
2021/12/06 10:34:19;;;;;;;5.88;1.85;;;;;;;5.48;89.13;99922.94;4951694;28;20126;-87
2021/12/06 10:36:46;;;;;;;11.70;2.20;;;;;;;5.50;89.18;99931.66;4948109;28;20051;-86
2021/12/06 10:39:12;;;;;;;10.95;1.85;;;;;;;5.51;88.88;99935.19;4943318;28;20075;-88
2021/12/06 10:41:41;;;;;;;7.05;2.10;;;;;;;5.50;88.93;99928.94;4951261;28;20161;-86
2021/12/06 10:44:11;;;;;;;11.27;2.10;;;;;;;5.50;88.73;99937.16;4968544;28;20055;-86
2021/12/06 10:46:49;;;;;;;4.47;1.48;;;;;;;5.49;88.26;99932.78;4944816;28;20083;-87
2021/12/06 10:49:19;;;;;;;8.18;2.13;;;;;;;5.50;88.45;99933.59;4937892;28;20049;-86
2021/12/06 10:51:46;;;;;;;12.45;2.88;;;;;;;5.51;88.14;99933.25;4943020;28;20574;-86
2021/12/06 10:54:20;;;;;;;18.17;3.03;;;;;;;5.52;88.10;99928.59;4952384;28;20081;-86
2021/12/06 10:56:51;;;;;;;9.55;2.13;;;;;;;5.52;87.53;99928.59;4951720;28;20130;-85
2021/12/06 10:59:23;;;;;;;16.10;2.37;;;;;;;5.53;87.75;99932.94;4965567;28;20046;-85
2021/12/06 11:01:53;;;;;;;14.52;2.38;;;;;;;5.56;87.14;99939.72;4969683;28;20300;-84
2021/12/06 11:04:23;;;;;;;7.15;1.30;;;;;;;5.58;87.07;99938.25;4948874;28;20039;-84
2021/12/06 11:06:53;;;;;;;10.43;2.88;;;;;;;5.62;86.53;99932.88;4941529;28;20126;-86
2021/12/06 11:09:28;;;;;;;11.27;2.85;;;;;;;5.66;86.37;99934.66;4938002;28;20046;-84
2021/12/06 11:11:59;;;;;;;9.15;1.80;;;;;;;5.73;85.71;99939.59;4947612;28;20035;-85
2021/12/06 11:14:36;;;;;;;9.15;2.40;;;;;;;5.75;85.77;99938.13;4953393;28;20035;-85
2021/12/06 11:17:18;;;;;;;6.65;1.98;;;;;;;5.76;85.62;99934.25;4943211;28;20047;-85
2021/12/06 11:19:46;;;;;;;;;;;;;;;5.73;83.88;99945.09;4942078;28;20586;-84
2021/12/06 11:22:18;;;;;;;8.07;2.00;;;;;;;5.73;85.03;99947.84;4946542;28;20585;-84
2021/12/06 11:24:51;;;;;;;13.05;2.92;;;;;;;5.72;84.95;99949.78;4960177;28;20059;-84
2021/12/06 11:27:27;;;;;;;8.10;2.92;;;;;;;5.74;85.14;99938.47;4947394;28;20042;-85
2021/12/06 11:30:03;;;;;;;21.23;5.05;;;;;;;5.75;84.47;99938.13;4948065;28;20046;-84
2021/12/06 11:32:35;;;;;;;10.02;2.28;;;;;;;5.75;84.34;99940.88;4934399;28;20126;-84
2021/12/06 11:35:06;;;;;;;15.43;2.80;;;;;;;5.74;84.20;99931.03;4951353;28;20047;-85
2021/12/06 11:37:38;;;;;;;16.67;3.03;;;;;;;5.73;83.82;99928.63;4952160;28;21291;-85
2021/12/06 11:40:11;;;;;;;14.35;4.20;;;;;;;5.70;83.53;99912.81;4950220;28;20042;-84
2021/12/06 11:43:11;;;;;;;12.32;2.20;;;;;;;5.70;83.14;99912.81;4950073;28;20045;-85
2021/12/06 11:45:42;;;;;;;12.43;2.33;;;;;;;5.71;83.46;99914.41;4957883;28;20043;-84
2021/12/06 11:48:20;;;;;;;14.18;3.80;;;;;;;5.73;83.69;99912.13;4950127;28;20082;-85
2021/12/06 11:50:50;;;;;;;9.85;2.03;;;;;;;5.74;83.24;99919.25;4949972;28;20480;-85
2021/12/06 11:53:21;;;;;;;11.35;2.75;;;;;;;5.74;83.14;99897.28;4949836;28;20075;-85
2021/12/06 11:55:54;;;;;;;8.77;2.05;;;;;;;5.76;82.75;99905.97;4934527;28;20043;-84
2021/12/06 11:58:23;;;;;;;11.63;1.88;;;;;;;5.77;82.77;99896.63;4965967;28;20567;-85
2021/12/06 12:01:22;;;;;;;10.95;2.35;;;;;;;5.75;81.26;99893.38;4958014;28;20035;-85